Time;durP1;ratioP1;P1;durP2;ratioP2;P2;SDS_P1;SDS_P2;PMS_P1;PMS_P2;Temp;Humidity;BMP_temperature;BMP_pressure;BME280_temperature;BME280_humidity;BME280_pressure;Samples;Min_cycle;Max_cycle;Signal;HPM_P1;HPM_P2
2022/07/08 00:01:59;;;;;;;10.35;1.58;;;15.80;99.90;;;;;;5114414;28;20039;-68
2022/07/08 00:04:25;;;;;;;11.95;1.73;;;15.80;99.90;;;;;;5114208;28;20039;-68
2022/07/08 00:06:51;;;;;;;12.90;1.70;;;15.70;99.90;;;;;;5114679;28;20039;-68
2022/07/08 00:09:17;;;;;;;12.88;1.80;;;15.70;99.90;;;;;;5113088;28;20061;-68
2022/07/08 00:11:43;;;;;;;8.35;1.45;;;15.70;99.90;;;;;;5114084;28;20044;-68
2022/07/08 00:14:09;;;;;;;7.13;1.85;;;15.80;99.90;;;;;;5113590;28;20541;-68
2022/07/08 00:16:40;;;;;;;9.30;1.58;;;15.80;99.90;;;;;;5113239;28;20082;-68
2022/07/08 00:19:07;;;;;;;7.53;2.03;;;15.70;99.90;;;;;;5114485;28;20039;-68
2022/07/08 00:21:33;;;;;;;9.13;1.40;;;15.70;99.90;;;;;;5112735;28;20475;-68
2022/07/08 00:23:58;;;;;;;6.80;1.65;;;15.70;99.90;;;;;;5113919;28;20036;-68
2022/07/08 00:26:24;;;;;;;6.18;1.60;;;15.60;99.90;;;;;;5113985;28;20058;-68
2022/07/08 00:28:49;;;;;;;5.95;1.65;;;15.70;99.90;;;;;;5114461;28;20050;-68
2022/07/08 00:31:15;;;;;;;10.63;2.03;;;15.70;99.90;;;;;;5122098;28;20043;-69
2022/07/08 00:33:40;;;;;;;7.35;1.45;;;15.70;99.90;;;;;;5118714;28;20483;-68
2022/07/08 00:36:06;;;;;;;7.13;1.98;;;15.60;99.90;;;;;;5113829;28;20039;-68
2022/07/08 00:38:32;;;;;;;8.35;1.75;;;15.60;99.90;;;;;;5113755;27;20059;-68
2022/07/08 00:40:57;;;;;;;9.80;1.48;;;15.60;99.90;;;;;;5113593;28;20360;-68
2022/07/08 00:43:34;;;;;;;14.40;1.98;;;15.60;99.90;;;;;;5113326;28;20036;-68
2022/07/08 00:45:59;;;;;;;13.50;1.95;;;15.60;99.90;;;;;;5113484;28;20039;-68
2022/07/08 00:48:25;;;;;;;9.70;1.95;;;15.60;99.90;;;;;;5113460;28;20039;-68
2022/07/08 00:50:50;;;;;;;13.70;2.20;;;15.60;99.90;;;;;;5113523;28;20039;-68
2022/07/08 00:53:17;;;;;;;6.20;1.55;;;15.60;99.90;;;;;;5111891;28;20050;-68
2022/07/08 00:55:43;;;;;;;8.88;1.98;;;15.50;99.90;;;;;;5121349;28;20043;-68
2022/07/08 00:58:09;;;;;;;8.38;1.67;;;15.50;99.90;;;;;;5124762;28;20051;-68
2022/07/08 01:00:36;;;;;;;14.07;2.00;;;15.50;99.90;;;;;;5113549;28;20100;-68
2022/07/08 01:03:02;;;;;;;10.57;1.95;;;15.50;99.90;;;;;;5112014;28;20039;-68
2022/07/08 01:05:27;;;;;;;4.78;1.42;;;15.50;99.90;;;;;;5113469;28;20039;-68
2022/07/08 01:07:53;;;;;;;9.38;2.10;;;15.50;99.90;;;;;;5113322;28;20042;-68
2022/07/08 01:10:18;;;;;;;14.07;1.90;;;15.50;99.90;;;;;;5113225;28;20047;-68
2022/07/08 01:12:44;;;;;;;9.35;1.45;;;15.50;99.90;;;;;;5111146;28;20441;-68
2022/07/08 01:15:10;;;;;;;13.45;2.17;;;15.40;99.90;;;;;;5113096;28;20043;-68
2022/07/08 01:17:43;;;;;;;11.77;1.83;;;15.40;99.90;;;;;;5113226;28;20067;-68
2022/07/08 01:20:10;;;;;;;8.95;1.70;;;15.40;99.90;;;;;;5111829;28;20418;-68
2022/07/08 01:22:35;;;;;;;10.50;2.00;;;15.40;99.90;;;;;;5112412;28;20036;-67
2022/07/08 01:25:01;;;;;;;8.60;1.73;;;15.40;99.90;;;;;;5112868;28;20067;-67
2022/07/08 01:27:26;;;;;;;11.82;2.08;;;15.40;99.90;;;;;;5112534;28;20152;-67
2022/07/08 01:29:52;;;;;;;6.18;1.80;;;15.40;99.90;;;;;;5112818;28;20051;-67
2022/07/08 01:32:17;;;;;;;9.55;2.10;;;15.30;99.90;;;;;;5112579;28;20047;-68
2022/07/08 01:34:43;;;;;;;9.98;2.10;;;15.20;99.90;;;;;;5112779;28;20032;-68
2022/07/08 01:37:08;;;;;;;16.75;2.00;;;15.20;99.90;;;;;;5112721;28;20039;-67
2022/07/08 01:39:34;;;;;;;13.25;2.40;;;15.20;99.90;;;;;;5112613;28;20043;-68
2022/07/08 01:42:00;;;;;;;10.13;2.47;;;15.20;99.90;;;;;;5112447;28;20115;-67
2022/07/08 01:44:25;;;;;;;12.98;2.10;;;15.20;99.90;;;;;;5112423;28;20063;-67
2022/07/08 01:46:51;;;;;;;10.23;2.08;;;15.20;99.90;;;;;;5112346;28;20047;-68
2022/07/08 01:49:16;;;;;;;9.05;1.98;;;15.10;99.90;;;;;;5119268;28;20043;-68
2022/07/08 01:51:42;;;;;;;10.23;2.30;;;15.00;99.90;;;;;;5120980;28;20066;-68
2022/07/08 01:54:08;;;;;;;12.70;2.00;;;15.00;99.90;;;;;;5112723;27;20042;-67
2022/07/08 01:56:33;;;;;;;8.60;2.03;;;15.00;99.90;;;;;;5112115;28;20040;-67
2022/07/08 01:58:59;;;;;;;13.30;2.17;;;14.90;99.90;;;;;;5112516;28;20044;-68
2022/07/08 02:01:24;;;;;;;12.82;2.70;;;14.90;99.90;;;;;;5111041;28;20477;-67
2022/07/08 02:03:50;;;;;;;14.68;2.30;;;14.80;99.90;;;;;;5115020;28;20032;-68
2022/07/08 02:06:15;;;;;;;10.07;2.17;;;14.80;99.90;;;;;;5121479;28;20035;-67
2022/07/08 02:08:41;;;;;;;8.93;2.22;;;14.80;99.90;;;;;;5113558;28;20044;-68
2022/07/08 02:13:50;;;;;;;10.25;2.22;;;14.70;99.90;;;;;;5112046;28;20407;-68
2022/07/08 02:16:16;;;;;;;11.15;2.30;;;14.70;99.90;;;;;;5111848;28;20036;-67
2022/07/08 02:18:42;;;;;;;12.38;2.25;;;14.70;99.90;;;;;;5112015;28;20096;-68
2022/07/08 02:21:07;;;;;;;9.77;2.15;;;14.70;99.90;;;;;;5111900;28;20054;-68
2022/07/08 02:23:33;;;;;;;8.20;2.05;;;14.60;99.90;;;;;;5111528;28;20348;-68
2022/07/08 02:25:58;;;;;;;8.52;1.90;;;14.60;99.90;;;;;;5111536;28;20041;-67
2022/07/08 02:28:25;;;;;;;8.43;2.15;;;14.60;99.90;;;;;;5110508;28;20483;-67
2022/07/08 02:30:50;;;;;;;7.85;2.28;;;14.60;99.90;;;;;;5111743;28;20040;-68
2022/07/08 02:33:16;;;;;;;6.57;2.00;;;14.60;99.90;;;;;;5111269;28;20122;-68
2022/07/08 02:35:41;;;;;;;8.02;1.90;;;14.60;99.90;;;;;;5111657;28;20061;-67
2022/07/08 02:38:07;;;;;;;9.55;2.10;;;14.60;99.90;;;;;;5110121;28;20039;-67
2022/07/08 02:40:32;;;;;;;7.57;2.10;;;14.60;99.90;;;;;;5110260;28;20031;-68
2022/07/08 02:42:58;;;;;;;7.43;2.08;;;14.50;99.90;;;;;;5111295;28;20084;-68
2022/07/08 02:45:23;;;;;;;13.00;2.35;;;14.50;99.90;;;;;;5111281;28;20108;-68
2022/07/08 02:47:49;;;;;;;9.75;2.30;;;14.50;99.90;;;;;;5111436;28;20043;-67
2022/07/08 02:50:14;;;;;;;10.38;2.33;;;14.50;99.90;;;;;;5111152;28;20044;-68
2022/07/08 02:52:40;;;;;;;15.90;2.55;;;14.50;99.90;;;;;;5110861;28;20040;-67
2022/07/08 02:55:06;;;;;;;10.52;1.95;;;14.50;99.90;;;;;;5111063;28;20035;-68
2022/07/08 02:57:31;;;;;;;11.05;2.13;;;14.40;99.90;;;;;;5111301;28;20118;-68
2022/07/08 02:59:57;;;;;;;5.40;1.83;;;14.40;99.90;;;;;;5111141;28;20062;-68
2022/07/08 03:02:22;;;;;;;8.75;2.20;;;14.40;99.90;;;;;;5111039;28;20058;-68
2022/07/08 03:04:48;;;;;;;6.97;1.85;;;14.40;99.90;;;;;;5111357;28;20100;-68
2022/07/08 03:07:13;;;;;;;8.05;2.38;;;14.40;99.90;;;;;;5111696;28;20047;-68
2022/07/08 03:09:39;;;;;;;9.48;1.75;;;14.30;99.90;;;;;;5119464;28;20479;-68
2022/07/08 03:12:05;;;;;;;11.15;2.40;;;14.30;99.90;;;;;;5118867;28;20488;-68
2022/07/08 03:14:30;;;;;;;10.10;2.88;;;14.30;99.90;;;;;;5117094;28;20055;-68
2022/07/08 03:16:56;;;;;;;9.65;2.40;;;14.30;99.90;;;;;;5112384;28;20046;-67
2022/07/08 03:19:21;;;;;;;11.93;2.13;;;14.30;99.90;;;;;;5107321;28;20031;-67
2022/07/08 03:21:47;;;;;;;10.13;2.33;;;14.30;99.90;;;;;;5106978;28;20042;-67
2022/07/08 03:24:12;;;;;;;10.30;2.15;;;14.20;99.90;;;;;;5109976;28;20039;-68
2022/07/08 03:26:38;;;;;;;10.70;2.42;;;14.30;99.90;;;;;;5109509;28;20044;-68
2022/07/08 03:29:04;;;;;;;8.02;2.15;;;14.20;99.90;;;;;;5110304;28;20047;-68
2022/07/08 03:31:29;;;;;;;11.93;1.85;;;14.20;99.90;;;;;;5110016;28;20082;-68
2022/07/08 03:33:55;;;;;;;7.63;2.40;;;14.20;99.90;;;;;;5107868;28;20050;-68
2022/07/08 03:36:20;;;;;;;7.40;2.10;;;14.20;99.90;;;;;;5110190;28;20028;-67
2022/07/08 03:38:46;;;;;;;4.53;1.52;;;14.20;99.90;;;;;;5110584;28;20028;-68
2022/07/08 03:41:20;;;;;;;10.02;2.00;;;14.20;99.90;;;;;;5110898;28;20067;-67
2022/07/08 03:43:48;;;;;;;10.80;2.00;;;14.20;99.90;;;;;;5110669;28;20058;-68
2022/07/08 03:46:13;;;;;;;11.38;2.05;;;14.20;99.90;;;;;;5110535;28;20544;-67
2022/07/08 03:48:39;;;;;;;7.28;1.95;;;14.20;99.90;;;;;;5110906;28;20118;-67
2022/07/08 03:51:04;;;;;;;7.72;2.20;;;14.10;99.90;;;;;;5109338;28;20506;-68
2022/07/08 03:53:30;;;;;;;10.63;2.22;;;14.10;99.90;;;;;;5110286;28;20039;-67
2022/07/08 03:55:56;;;;;;;7.22;2.10;;;14.10;99.90;;;;;;5109140;28;20046;-68
2022/07/08 03:58:22;;;;;;;6.55;1.85;;;14.10;99.90;;;;;;5110768;28;20487;-67
2022/07/08 04:00:47;;;;;;;7.47;2.00;;;14.20;99.90;;;;;;5110216;28;20058;-67
2022/07/08 04:03:13;;;;;;;6.68;1.88;;;14.30;99.90;;;;;;5110167;28;20556;-68
2022/07/08 04:05:39;;;;;;;6.70;2.05;;;14.30;99.90;;;;;;5110247;28;20047;-67
2022/07/08 04:08:05;;;;;;;6.75;1.77;;;14.40;99.90;;;;;;5110396;28;20042;-67
2022/07/08 04:10:30;;;;;;;11.68;2.55;;;14.40;99.90;;;;;;5110442;28;20388;-67
2022/07/08 04:12:56;;;;;;;7.05;1.80;;;14.50;99.90;;;;;;5108431;28;20039;-67
2022/07/08 04:15:22;;;;;;;9.52;1.77;;;14.50;99.90;;;;;;5109263;28;20042;-67
2022/07/08 04:17:47;;;;;;;7.13;2.20;;;14.50;99.90;;;;;;5110288;28;20048;-67
2022/07/08 04:20:13;;;;;;;4.22;1.90;;;14.50;99.90;;;;;;5110720;28;20141;-67
2022/07/08 04:22:39;;;;;;;6.53;1.67;;;14.60;99.90;;;;;;5118962;28;20044;-67
2022/07/08 04:25:06;;;;;;;12.90;2.28;;;14.60;99.90;;;;;;5121250;28;20384;-67
2022/07/08 04:27:32;;;;;;;7.28;1.95;;;14.60;99.90;;;;;;5112331;28;20035;-67
2022/07/08 04:29:58;;;;;;;8.52;1.63;;;14.60;99.90;;;;;;5119634;28;20141;-67
2022/07/08 04:32:23;;;;;;;14.35;1.70;;;14.60;99.90;;;;;;5115769;28;20444;-67
2022/07/08 04:34:51;;;;;;;11.65;1.95;;;14.60;99.90;;;;;;5114618;28;20048;-67
2022/07/08 04:37:17;;;;;;;14.35;1.92;;;14.60;99.90;;;;;;5114023;28;20110;-67
2022/07/08 04:39:43;;;;;;;13.50;2.22;;;14.60;99.90;;;;;;5112979;28;20607;-67
2022/07/08 04:42:08;;;;;;;11.02;2.10;;;14.70;99.90;;;;;;5112812;28;20075;-67
2022/07/08 04:44:34;;;;;;;13.10;2.28;;;14.70;99.90;;;;;;5113722;28;20039;-67
2022/07/08 04:46:59;;;;;;;12.20;2.20;;;14.70;99.90;;;;;;5113673;28;20036;-67
2022/07/08 04:49:25;;;;;;;10.77;2.13;;;14.70;99.90;;;;;;5113613;28;20073;-67
2022/07/08 04:51:51;;;;;;;8.40;1.92;;;14.80;99.90;;;;;;5113887;27;20329;-67
2022/07/08 04:54:16;;;;;;;11.80;2.10;;;14.80;99.90;;;;;;5113529;28;20437;-67
2022/07/08 04:56:42;;;;;;;12.98;2.20;;;14.80;99.90;;;;;;5113785;28;20138;-67
2022/07/08 04:59:08;;;;;;;17.85;2.30;;;14.90;99.90;;;;;;5113565;28;20415;-67
2022/07/08 05:01:34;;;;;;;5.93;1.77;;;14.80;99.90;;;;;;5113581;28;20040;-67
2022/07/08 05:04:00;;;;;;;13.25;2.00;;;14.90;99.90;;;;;;5113230;28;20035;-67
2022/07/08 05:06:25;;;;;;;13.05;2.67;;;15.00;99.90;;;;;;5112117;28;20555;-67
2022/07/08 05:08:51;;;;;;;6.40;2.22;;;15.00;99.90;;;;;;5113602;27;20036;-67
2022/07/08 05:11:16;;;;;;;7.05;2.13;;;15.20;99.90;;;;;;5113382;28;20036;-67
2022/07/08 05:13:42;;;;;;;10.05;1.90;;;15.30;99.90;;;;;;5113129;28;20080;-67
2022/07/08 05:16:08;;;;;;;7.55;2.45;;;15.40;99.90;;;;;;5113277;28;20047;-67
2022/07/08 05:18:33;;;;;;;10.02;2.58;;;15.60;99.90;;;;;;5111754;28;20042;-66
2022/07/08 05:20:59;;;;;;;7.63;2.03;;;15.70;99.90;;;;;;5111558;28;20572;-66
2022/07/08 05:23:26;;;;;;;7.70;1.60;;;15.90;99.90;;;;;;5112735;28;20070;-66
2022/07/08 05:25:51;;;;;;;13.02;2.10;;;16.00;99.90;;;;;;5113139;28;20086;-66
2022/07/08 05:28:17;;;;;;;6.90;1.90;;;16.10;99.90;;;;;;5113157;28;20257;-66
2022/07/08 05:30:42;;;;;;;9.98;1.85;;;16.30;99.90;;;;;;5113126;28;20694;-66
2022/07/08 05:33:08;;;;;;;7.82;1.83;;;16.60;99.90;;;;;;5117038;28;20412;-67
2022/07/08 05:35:33;;;;;;;15.10;1.98;;;16.60;99.90;;;;;;5123728;28;20040;-66
2022/07/08 05:37:59;;;;;;;8.35;1.90;;;16.70;99.90;;;;;;5114539;28;20064;-67
2022/07/08 05:40:25;;;;;;;8.23;2.25;;;16.80;99.90;;;;;;5112840;28;20036;-67
2022/07/08 05:42:50;;;;;;;13.15;2.55;;;16.90;99.90;;;;;;5112318;28;20043;-66
2022/07/08 05:45:16;;;;;;;7.47;2.03;;;16.80;99.90;;;;;;5112993;28;20043;-67
2022/07/08 05:47:41;;;;;;;9.65;2.15;;;16.80;99.90;;;;;;5114963;28;20047;-67
2022/07/08 05:50:07;;;;;;;8.35;2.00;;;16.70;99.90;;;;;;5119981;28;20512;-67
2022/07/08 05:52:33;;;;;;;10.68;1.90;;;16.70;99.90;;;;;;5115274;28;20071;-66
2022/07/08 05:54:59;;;;;;;8.13;2.00;;;16.60;99.90;;;;;;5112771;28;20120;-67
2022/07/08 05:57:25;;;;;;;5.70;1.73;;;16.70;99.90;;;;;;5112475;28;20464;-66
2022/07/08 05:59:50;;;;;;;10.15;1.75;;;16.60;99.90;;;;;;5112232;28;20068;-66
2022/07/08 06:02:18;;;;;;;13.55;2.35;;;16.60;99.90;;;;;;5110794;28;20136;-66
2022/07/08 06:04:43;;;;;;;7.03;2.05;;;16.60;99.90;;;;;;5093707;28;20043;-66
2022/07/08 06:07:09;;;;;;;13.02;2.17;;;16.70;99.90;;;;;;5112006;28;20036;-65
2022/07/08 06:09:35;;;;;;;7.72;1.88;;;16.70;99.90;;;;;;5112228;28;20047;-66
2022/07/08 06:12:00;;;;;;;7.15;1.77;;;16.80;99.90;;;;;;5084682;28;20115;-67
2022/07/08 06:14:26;;;;;;;11.35;2.28;;;16.80;99.90;;;;;;5084208;28;20028;-66
2022/07/08 06:16:52;;;;;;;8.60;2.40;;;16.90;99.90;;;;;;5081565;28;20046;-67
2022/07/08 06:19:17;;;;;;;7.88;2.10;;;16.90;99.90;;;;;;5079734;28;20048;-66
2022/07/08 06:21:44;;;;;;;11.65;1.90;;;16.90;99.90;;;;;;5081492;28;20549;-69
2022/07/08 06:24:09;;;;;;;10.93;1.73;;;17.00;99.90;;;;;;5081169;28;20064;-67
2022/07/08 06:26:36;;;;;;;5.88;1.63;;;17.20;99.90;;;;;;5071821;28;20068;-67
2022/07/08 06:29:02;;;;;;;18.00;2.10;;;17.40;99.90;;;;;;5070029;28;20492;-67
2022/07/08 06:31:28;;;;;;;13.02;2.15;;;17.50;99.90;;;;;;5071280;28;20123;-67
2022/07/08 06:33:56;;;;;;;6.95;1.90;;;17.60;99.90;;;;;;5069304;28;20120;-67
2022/07/08 06:36:23;;;;;;;10.60;1.60;;;17.70;99.90;;;;;;5070276;28;20036;-67
2022/07/08 06:38:50;;;;;;;10.57;2.13;;;17.70;99.90;;;;;;5074697;28;20040;-67
2022/07/08 06:41:15;;;;;;;11.98;2.00;;;17.60;99.90;;;;;;5086148;28;20062;-67
2022/07/08 06:43:41;;;;;;;14.63;1.83;;;17.70;99.90;;;;;;5077982;28;20203;-67
2022/07/08 06:46:06;;;;;;;10.35;2.05;;;17.60;99.90;;;;;;5070856;28;20041;-67
2022/07/08 06:48:32;;;;;;;8.05;1.48;;;17.70;99.90;;;;;;5069400;28;20044;-67
2022/07/08 06:50:57;;;;;;;10.90;3.15;;;17.80;99.90;;;;;;5069425;28;20087;-67
2022/07/08 06:53:25;;;;;;;7.72;2.10;;;17.90;99.90;;;;;;5070481;28;20032;-67
2022/07/08 06:55:50;;;;;;;8.63;1.88;;;18.00;99.90;;;;;;5070062;28;20484;-67
2022/07/08 06:58:16;;;;;;;6.53;2.08;;;18.00;99.90;;;;;;5070633;28;20029;-68
2022/07/08 07:00:42;;;;;;;9.27;1.90;;;18.00;99.90;;;;;;5070454;28;20090;-67
2022/07/08 07:03:08;;;;;;;7.97;1.90;;;18.00;99.90;;;;;;5070188;28;20052;-67
2022/07/08 07:05:33;;;;;;;8.98;1.92;;;18.00;99.90;;;;;;5069956;28;20055;-68
2022/07/08 07:07:59;;;;;;;12.90;2.20;;;18.00;99.90;;;;;;5072433;28;20097;-68
2022/07/08 07:10:25;;;;;;;9.93;2.00;;;18.00;99.90;;;;;;5072161;28;20089;-67
2022/07/08 07:12:50;;;;;;;8.73;1.52;;;18.00;99.90;;;;;;5069695;28;20083;-67
2022/07/08 07:15:16;;;;;;;11.23;1.80;;;17.90;99.90;;;;;;5070954;28;20040;-67
2022/07/08 07:17:45;;;;;;;8.40;2.00;;;18.00;99.90;;;;;;5070325;28;20032;-67
2022/07/08 07:20:11;;;;;;;18.13;2.08;;;18.00;99.90;;;;;;5069109;28;20053;-67
2022/07/08 07:22:37;;;;;;;9.18;1.70;;;17.90;99.90;;;;;;5068650;28;20251;-67
2022/07/08 07:25:02;;;;;;;6.47;1.70;;;18.00;99.90;;;;;;5070251;28;20048;-67
2022/07/08 07:27:28;;;;;;;7.85;1.80;;;18.00;99.90;;;;;;5070306;28;20492;-67
2022/07/08 07:29:54;;;;;;;9.05;2.13;;;18.10;99.90;;;;;;5070159;28;20563;-67
2022/07/08 07:32:19;;;;;;;11.25;2.10;;;18.00;99.90;;;;;;5070055;28;20551;-66
2022/07/08 07:34:45;;;;;;;13.23;1.95;;;18.00;99.90;;;;;;5070511;28;20505;-67
2022/07/08 07:37:10;;;;;;;8.52;1.75;;;18.20;99.90;;;;;;5070436;28;20044;-66
2022/07/08 07:39:36;;;;;;;9.85;1.60;;;18.20;99.90;;;;;;5070558;28;20067;-67
2022/07/08 07:42:02;;;;;;;10.23;1.77;;;18.10;99.90;;;;;;5070464;28;20032;-67
2022/07/08 07:44:28;;;;;;;12.50;2.15;;;18.10;99.90;;;;;;5070017;28;20051;-68
2022/07/08 07:46:53;;;;;;;14.27;2.33;;;18.10;99.90;;;;;;5070497;28;20036;-67
2022/07/08 07:49:19;;;;;;;12.05;2.38;;;18.20;99.90;;;;;;5084718;28;20067;-68
2022/07/08 07:51:44;;;;;;;9.95;1.95;;;18.20;99.90;;;;;;5087924;28;20115;-68
2022/07/08 07:54:10;;;;;;;12.20;2.17;;;18.20;99.90;;;;;;5070316;28;20653;-68
2022/07/08 07:56:36;;;;;;;10.60;1.90;;;18.20;99.90;;;;;;5070292;28;20069;-67
2022/07/08 07:59:03;;;;;;;8.50;1.70;;;18.20;99.90;;;;;;5070367;28;20041;-67
2022/07/08 08:01:28;;;;;;;7.88;1.90;;;18.40;99.90;;;;;;5069704;28;20063;-67
2022/07/08 08:03:54;;;;;;;8.52;1.90;;;18.20;99.90;;;;;;5070191;28;20038;-68
2022/07/08 08:06:19;;;;;;;10.65;1.88;;;18.20;99.90;;;;;;5070508;28;20399;-67
2022/07/08 08:08:45;;;;;;;8.48;2.00;;;18.30;99.90;;;;;;5073948;28;20079;-67
2022/07/08 08:11:11;;;;;;;9.82;1.80;;;18.30;99.90;;;;;;5073705;28;20068;-66
2022/07/08 08:13:36;;;;;;;14.68;1.70;;;18.30;99.90;;;;;;5073035;28;20041;-66
2022/07/08 08:16:02;;;;;;;14.52;2.10;;;18.30;99.90;;;;;;5073463;28;20040;-66
2022/07/08 08:18:27;;;;;;;7.55;1.60;;;18.40;99.90;;;;;;5072341;28;20076;-66
2022/07/08 08:20:53;;;;;;;7.38;1.80;;;18.40;99.90;;;;;;5073702;28;20044;-67
2022/07/08 08:23:18;;;;;;;11.98;2.22;;;18.30;99.90;;;;;;5073412;28;20055;-66
2022/07/08 08:25:44;;;;;;;8.73;1.58;;;18.40;99.90;;;;;;5073292;28;20063;-66
2022/07/08 08:28:10;;;;;;;10.50;2.33;;;18.40;99.90;;;;;;5077675;28;20040;-66
2022/07/08 08:30:35;;;;;;;10.75;1.70;;;18.40;99.90;;;;;;5077517;28;20037;-66
2022/07/08 08:33:01;;;;;;;7.25;1.75;;;18.40;99.90;;;;;;5073468;28;20032;-66
2022/07/08 08:35:27;;;;;;;8.75;1.92;;;18.40;99.90;;;;;;5073501;28;20031;-66
2022/07/08 08:37:52;;;;;;;11.38;1.60;;;18.40;99.90;;;;;;5073235;28;20098;-66
2022/07/08 08:40:20;;;;;;;6.65;1.63;;;18.40;99.90;;;;;;5073343;28;20409;-66
2022/07/08 08:42:46;;;;;;;10.05;1.77;;;18.40;99.90;;;;;;5072905;28;20041;-65
2022/07/08 08:45:11;;;;;;;9.95;1.88;;;18.50;99.90;;;;;;5073074;28;20052;-66
2022/07/08 08:47:38;;;;;;;7.97;1.50;;;18.50;99.90;;;;;;5073158;28;20052;-66
2022/07/08 08:52:54;;;;;;;12.93;2.00;;;18.60;99.90;;;;;;5072748;28;20049;-67
2022/07/08 08:55:30;;;;;;;11.25;1.83;;;18.70;99.90;;;;;;5073192;28;20439;-67
2022/07/08 08:58:01;;;;;;;6.60;1.55;;;18.90;99.90;;;;;;5085912;28;20036;-66
2022/07/08 09:00:28;;;;;;;6.47;1.83;;;19.00;99.90;;;;;;5114513;28;20051;-67
2022/07/08 09:02:55;;;;;;;9.18;2.03;;;19.00;99.90;;;;;;5113568;28;20047;-67
2022/07/08 09:05:22;;;;;;;11.77;1.90;;;19.00;99.90;;;;;;5113614;27;20039;-68
2022/07/08 09:07:48;;;;;;;16.90;2.38;;;19.10;99.90;;;;;;5111745;28;20065;-67
2022/07/08 09:10:33;;;;;;;8.07;2.10;;;19.00;99.90;;;;;;5113257;28;20046;-68
2022/07/08 09:12:59;;;;;;;10.15;1.90;;;19.10;99.90;;;;;;5111998;28;20062;-69
2022/07/08 09:15:36;;;;;;;8.85;1.83;;;19.20;99.90;;;;;;5114520;28;20036;-69
2022/07/08 09:18:04;;;;;;;13.50;1.77;;;19.30;99.90;;;;;;5112982;28;20483;-69
2022/07/08 09:20:50;;;;;;;10.23;2.03;;;19.30;99.90;;;;;;5111753;28;20035;-69
2022/07/08 09:23:21;;;;;;;9.23;2.10;;;19.50;99.90;;;;;;5113018;28;20110;-69
2022/07/08 09:25:52;;;;;;;10.18;1.73;;;19.60;99.90;;;;;;5113240;28;20062;-69
2022/07/08 09:28:38;;;;;;;13.00;2.17;;;19.70;99.90;;;;;;5113151;28;20507;-69
2022/07/08 09:31:09;;;;;;;6.82;1.85;;;19.70;99.90;;;;;;5112994;28;20036;-69
2022/07/08 09:33:36;;;;;;;9.35;2.15;;;19.70;99.90;;;;;;5111123;28;20043;-69
2022/07/08 09:36:03;;;;;;;13.93;2.47;;;19.70;99.90;;;;;;5111549;28;20111;-69
2022/07/08 09:38:35;;;;;;;8.23;2.00;;;19.60;99.90;;;;;;5111554;28;20044;-69
2022/07/08 09:41:05;;;;;;;7.13;1.92;;;19.60;99.90;;;;;;5112794;28;20035;-68
2022/07/08 09:43:32;;;;;;;6.10;1.58;;;19.60;99.90;;;;;;5112470;28;20048;-69
2022/07/08 09:46:06;;;;;;;8.48;2.13;;;19.50;99.90;;;;;;5116597;28;20051;-69
2022/07/08 09:48:33;;;;;;;9.00;2.38;;;19.50;99.90;;;;;;5129257;28;20075;-69
2022/07/08 09:51:00;;;;;;;11.32;1.77;;;19.50;99.90;;;;;;5121529;28;20047;-69
2022/07/08 09:53:27;;;;;;;5.13;1.80;;;19.70;99.90;;;;;;5113351;28;20035;-69
2022/07/08 09:55:55;;;;;;;6.45;1.92;;;19.60;99.90;;;;;;5111128;28;20046;-69
2022/07/08 09:58:25;;;;;;;10.80;2.20;;;19.60;99.90;;;;;;5113224;28;20035;-70
2022/07/08 10:00:52;;;;;;;10.32;2.10;;;19.70;99.90;;;;;;5112946;28;20421;-70
2022/07/08 10:03:20;;;;;;;10.02;2.15;;;19.70;99.90;;;;;;5119053;28;20070;-70
2022/07/08 10:05:46;;;;;;;8.80;2.13;;;19.80;99.90;;;;;;5134219;28;20047;-70
2022/07/08 10:08:13;;;;;;;8.15;2.28;;;19.80;99.90;;;;;;5128943;28;20065;-70
2022/07/08 10:10:40;;;;;;;9.52;2.20;;;19.80;99.90;;;;;;5111906;28;20092;-70
2022/07/08 10:13:06;;;;;;;11.95;1.85;;;19.80;99.90;;;;;;5112294;28;20096;-70
2022/07/08 10:15:34;;;;;;;6.30;1.70;;;19.90;99.90;;;;;;5111076;28;20044;-69
2022/07/08 10:18:08;;;;;;;7.28;1.98;;;19.80;99.90;;;;;;5110841;28;20090;-70
2022/07/08 10:20:36;;;;;;;7.97;2.25;;;19.80;99.90;;;;;;5112082;28;20046;-70
2022/07/08 10:23:09;;;;;;;6.55;1.88;;;19.80;99.90;;;;;;5110527;28;20039;-70
2022/07/08 10:25:36;;;;;;;9.65;2.10;;;19.70;99.90;;;;;;5112448;28;20032;-70
2022/07/08 10:28:05;;;;;;;7.75;2.05;;;19.80;99.90;;;;;;5112272;28;20039;-70
2022/07/08 10:30:48;;;;;;;10.20;2.10;;;19.80;99.90;;;;;;5111144;28;20039;-71
2022/07/08 10:33:25;;;;;;;11.90;1.80;;;19.80;99.90;;;;;;5112046;28;20379;-69
2022/07/08 10:36:07;;;;;;;8.48;2.63;;;19.80;99.90;;;;;;5112780;28;20038;-68
2022/07/08 10:38:38;;;;;;;15.55;2.13;;;20.00;99.90;;;;;;5111662;28;20040;-67
2022/07/08 10:41:12;;;;;;;9.90;3.00;;;20.00;99.90;;;;;;5110312;28;20046;-67
2022/07/08 10:43:48;;;;;;;7.55;2.00;;;20.10;99.90;;;;;;5111254;28;20047;-67
2022/07/08 10:46:16;;;;;;;8.52;1.73;;;20.10;99.90;;;;;;5111621;28;20391;-67
2022/07/08 10:48:45;;;;;;;7.82;1.83;;;20.10;99.90;;;;;;5111728;28;20183;-67
2022/07/08 10:51:19;;;;;;;7.82;2.03;;;20.10;99.90;;;;;;5111504;28;20050;-68
2022/07/08 10:53:53;;;;;;;8.93;1.95;;;20.20;99.90;;;;;;5111088;28;20047;-67
2022/07/08 10:56:47;;;;;;;5.38;1.85;;;20.30;99.90;;;;;;5111186;28;20073;-68
2022/07/08 10:59:26;;;;;;;5.32;1.63;;;20.50;99.90;;;;;;5110296;28;20047;-68
2022/07/08 11:01:53;;;;;;;9.40;1.95;;;20.50;99.90;;;;;;5111441;28;20403;-67
2022/07/08 11:04:40;;;;;;;4.72;1.42;;;20.60;99.90;;;;;;5111015;28;20112;-67
2022/07/08 11:07:20;;;;;;;4.60;1.65;;;20.60;99.90;;;;;;5108214;28;20093;-67
2022/07/08 11:09:51;;;;;;;7.63;1.70;;;20.60;99.90;;;;;;5114137;28;20040;-67
2022/07/08 11:12:20;;;;;;;6.72;2.00;;;20.70;99.90;;;;;;5111028;28;20050;-67
2022/07/08 11:14:50;;;;;;;7.00;1.50;;;20.60;99.90;;;;;;5118962;28;20046;-67
2022/07/08 11:17:16;;;;;;;12.63;2.35;;;20.80;99.90;;;;;;5118376;28;20449;-67
2022/07/08 11:19:43;;;;;;;8.15;2.30;;;20.70;99.90;;;;;;5111760;28;20036;-67
2022/07/08 11:22:12;;;;;;;6.38;1.83;;;20.80;99.90;;;;;;5111291;28;20059;-70
2022/07/08 11:24:39;;;;;;;7.78;1.63;;;20.80;99.90;;;;;;5111206;28;20039;-70
2022/07/08 11:27:05;;;;;;;7.65;1.90;;;20.80;99.90;;;;;;5111211;28;20384;-70
2022/07/08 11:29:31;;;;;;;6.38;1.98;;;20.90;99.90;;;;;;5110995;28;20043;-69
2022/07/08 11:31:58;;;;;;;7.35;1.88;;;21.00;99.90;;;;;;5111121;28;20043;-69
2022/07/08 11:34:24;;;;;;;5.90;1.85;;;20.90;99.90;;;;;;5110867;28;20075;-70
2022/07/08 11:36:58;;;;;;;6.65;2.05;;;21.00;99.90;;;;;;5111087;28;20036;-70
2022/07/08 11:39:24;;;;;;;7.50;2.22;;;21.20;99.90;;;;;;5111039;28;20076;-69
2022/07/08 11:41:50;;;;;;;8.80;2.30;;;21.30;99.90;;;;;;5113661;28;20130;-69
2022/07/08 11:44:20;;;;;;;7.18;2.15;;;21.20;99.90;;;;;;5096386;28;20045;-69
2022/07/08 11:46:56;;;;;;;10.27;2.35;;;21.40;99.90;;;;;;5115130;28;20092;-69
2022/07/08 11:49:22;;;;;;;7.20;2.10;;;21.40;99.90;;;;;;5114985;28;20494;-69
2022/07/08 11:51:49;;;;;;;10.90;2.53;;;21.30;99.90;;;;;;5115063;28;20248;-70
2022/07/08 11:54:18;;;;;;;7.43;2.20;;;21.30;99.90;;;;;;5114748;28;20463;-69
2022/07/08 11:56:44;;;;;;;9.65;2.22;;;21.30;99.90;;;;;;5114676;27;20058;-69
2022/07/08 11:59:10;;;;;;;9.75;2.03;;;21.40;99.90;;;;;;5114992;28;20040;-69
2022/07/08 12:01:36;;;;;;;10.80;2.20;;;21.40;99.90;;;;;;5114915;28;20118;-70
2022/07/08 12:04:06;;;;;;;9.82;2.28;;;21.30;99.90;;;;;;5114452;28;20044;-69
2022/07/08 12:06:33;;;;;;;12.38;2.90;;;21.30;99.90;;;;;;5096183;28;20118;-69
2022/07/08 12:09:06;;;;;;;9.30;2.75;;;21.40;99.90;;;;;;5114557;28;20042;-70
2022/07/08 12:11:43;;;;;;;10.85;2.45;;;21.60;99.90;;;;;;5113547;28;20047;-70
2022/07/08 12:14:09;;;;;;;6.97;2.45;;;21.60;99.90;;;;;;5114490;28;20048;-70
2022/07/08 12:16:42;;;;;;;8.40;2.33;;;21.60;99.90;;;;;;5114571;28;20082;-70
2022/07/08 12:19:28;;;;;;;3.47;2.00;;;21.70;99.90;;;;;;5113250;28;20079;-70
2022/07/08 12:21:55;;;;;;;10.18;2.05;;;21.60;99.90;;;;;;5115282;28;20043;-70
2022/07/08 12:24:25;;;;;;;8.48;2.10;;;21.60;99.90;;;;;;5138488;28;20040;-70
2022/07/08 12:26:59;;;;;;;11.70;2.25;;;21.70;99.90;;;;;;5127537;28;20508;-70
2022/07/08 12:29:26;;;;;;;13.05;2.40;;;21.70;99.90;;;;;;5120471;28;20089;-69
2022/07/08 12:31:52;;;;;;;7.47;2.45;;;21.70;99.90;;;;;;5115163;28;20056;-70
2022/07/08 12:34:20;;;;;;;10.75;1.73;;;21.70;99.90;;;;;;5114046;28;20035;-70
2022/07/08 12:36:46;;;;;;;11.75;2.38;;;21.80;99.90;;;;;;5113080;28;20122;-70
2022/07/08 12:39:15;;;;;;;6.63;2.10;;;21.80;99.90;;;;;;5114292;28;20484;-70
2022/07/08 12:41:41;;;;;;;9.23;2.22;;;21.90;99.90;;;;;;5114438;28;20040;-70
2022/07/08 12:44:31;;;;;;;9.48;2.42;;;21.90;99.90;;;;;;5114015;28;20416;-70
2022/07/08 12:46:57;;;;;;;13.07;2.60;;;21.90;99.90;;;;;;5112415;28;20097;-70
2022/07/08 12:49:27;;;;;;;6.13;2.50;;;21.90;99.90;;;;;;5114063;28;20043;-70